Ebeye, MH

12:25 AM MHT on December 30, 2014 (GMT +1200)
Saipan International | Change Station
CLOSE
Current Station
Airport
Location: Saipan,
Elevation: 213 ft
Nearby Weather Stations

Elev 213 ft 15.12 °N, 145.73 °E | Updated 31 minutes ago

Light Rain
Light Rain
75 °F
Feels Like 75 °F
N
7
Wind Variable Wind from SE

Today
High -- | Low -- °F
--% Chance of Precip.
Yesterday
High -- | Low -- °F
Precip. -- in
6:46 AM 6:29 PM
First Quarter, 58% visible
Pressure 29.94 in
Visibility 7.0 miles
Clouds Few 1300 ft
Overcast 4300 ft
Dew Point 73 °F
Humidity 94%
Rainfall 0.00 in
Snow Depth Not available.
UV 0 out of 12
Pollen Not available.
Air Quality Not available.
Flu Activity Not available.
METAR PGSN 291154Z 14006KT 7SM -RA FEW013 OVC043 24/23 A2987 RMK AO2 RAB31 SLP136 6//// 7//// T02390228 10283 20239 50012 PNO $

More Conditions Fewer Conditions

Pressure 29.94 in
Visibility 7.0 miles
Clouds Few 1300 ft
Overcast 4300 ft
Dew Point 73 °F
Humidity 94%
Rainfall 0.00 in
Snow Depth Not available.
UV 0 out of 12
Pollen Not available.
Air Quality Not available.
Flu Activity Not available.
METAR PGSN 291154Z 14006KT 7SM -RA FEW013 OVC043 24/23 A2987 RMK AO2 RAB31 SLP136 6//// 7//// T02390228 10283 20239 50012 PNO $

More Conditions Fewer Conditions

10-Day Weather Forecast

Almanac

Astronomy

Dec. 30, 2014 Rise Set
Actual Time
Civil Twilight
Nautical Twilight
Astronomical Twilight
Moon
Length of Visible Light
Length of Day
Tomorrow will be .
, % of the Moon is Illuminated

Today's Extremes

State Highs State Lows

Community

WunderPhotos

Upload Photos

1,781,573 photos uploaded!

WunderBlogs® & News

Nearby

Air Quality

  Air Quality AQ Index Pollutant
Not available.

Snow Depth

Station Depth Elevation

Earthquake Activity

City Distance Mag. Time & Date
Minimum magnitude displayed is 2.5.

Coastal Water Temperatures

Place Temperature

Nearby Weather Stations